Terminal Aerodrome Forecast
Issued by NWS

Home | Current Version | Previous Version | Text Only | Print | Product List | Glossary On
Versions: 1 2 3 4 5 6 7 8 9 10 11 12 13 14 15 16 17 18 19 20 21 22 23
000
FTUS41 KOKX 301700
TAFHPN
TAF
KHPN 301736Z 3018/3118 17010KT P6SM SCT025 BKN040
     FM310000 VRB04KT P6SM SCT010 BKN035
     FM310600 VRB03KT 5SM BR BKN010
     FM311600 20007KT P6SM SCT015 BKN035
      AMD NOT SKED=

USA.gov is the U.S. government's official web portal to all federal, state and local government web resources and services.